sensor_id;sensor_type;location;lat;lon;timestamp;pressure;altitude;pressure_sealevel;temperature;humidity
13934;BME280;7039;52.168;9.866;2023-04-03T00:00:26;102055.34;;;3.16;71.38
13934;BME280;7039;52.168;9.866;2023-04-03T00:02:52;102070.81;;;3.16;71.24
13934;BME280;7039;52.168;9.866;2023-04-03T00:05:19;102068.19;;;3.05;71.18
13934;BME280;7039;52.168;9.866;2023-04-03T00:07:45;102069.88;;;2.98;71.13
13934;BME280;7039;52.168;9.866;2023-04-03T00:10:12;102079.38;;;3.05;71.17
13934;BME280;7039;52.168;9.866;2023-04-03T00:12:40;102077.66;;;3.06;71.19
13934;BME280;7039;52.168;9.866;2023-04-03T00:15:07;102076.69;;;2.91;71.41
13934;BME280;7039;52.168;9.866;2023-04-03T00:17:35;102081.78;;;2.85;71.55
13934;BME280;7039;52.168;9.866;2023-04-03T00:20:01;102078.34;;;2.83;71.91
13934;BME280;7039;52.168;9.866;2023-04-03T00:22:28;102082.63;;;2.83;71.75
13934;BME280;7039;52.168;9.866;2023-04-03T00:24:54;102082.66;;;2.84;71.65
13934;BME280;7039;52.168;9.866;2023-04-03T00:27:21;102080.03;;;2.80;71.61
13934;BME280;7039;52.168;9.866;2023-04-03T00:29:48;102084.31;;;2.78;71.81
13934;BME280;7039;52.168;9.866;2023-04-03T00:32:14;102082.63;;;2.80;71.64
13934;BME280;7039;52.168;9.866;2023-04-03T00:34:42;102094.63;;;2.79;71.62
13934;BME280;7039;52.168;9.866;2023-04-03T00:37:09;102099.72;;;2.75;71.94
13934;BME280;7039;52.168;9.866;2023-04-03T00:39:36;102100.72;;;2.90;71.36
13934;BME280;7039;52.168;9.866;2023-04-03T00:42:02;102104.09;;;2.80;71.91
13934;BME280;7039;52.168;9.866;2023-04-03T00:47:33;102109.09;;;2.65;71.95
13934;BME280;7039;52.168;9.866;2023-04-03T00:50:01;102114.34;;;2.76;72.05
13934;BME280;7039;52.168;9.866;2023-04-03T00:52:29;102112.69;;;2.82;71.58
13934;BME280;7039;52.168;9.866;2023-04-03T00:54:59;102119.56;;;2.80;71.75
13934;BME280;7039;52.168;9.866;2023-04-03T00:57:27;102116.69;;;2.49;72.31
13934;BME280;7039;52.168;9.866;2023-04-03T00:59:56;102115.91;;;2.57;72.81
13934;BME280;7039;52.168;9.866;2023-04-03T01:02:24;102114.19;;;2.57;73.17
13934;BME280;7039;52.168;9.866;2023-04-03T01:04:51;102115.06;;;2.58;72.45
13934;BME280;7039;52.168;9.866;2023-04-03T01:07:21;102112.56;;;2.67;72.21
13934;BME280;7039;52.168;9.866;2023-04-03T01:09:51;102110.84;;;2.66;72.37
13934;BME280;7039;52.168;9.866;2023-04-03T01:12:21;102116.81;;;2.63;72.42
13934;BME280;7039;52.168;9.866;2023-04-03T01:14:50;102115.97;;;2.64;72.60
13934;BME280;7039;52.168;9.866;2023-04-03T01:17:31;102118.72;;;2.83;72.31
13934;BME280;7039;52.168;9.866;2023-04-03T01:20:14;102117.78;;;2.76;71.91
13934;BME280;7039;52.168;9.866;2023-04-03T01:22:53;102117.66;;;2.62;72.40
13934;BME280;7039;52.168;9.866;2023-04-03T01:25:23;102121.97;;;2.62;72.83
13934;BME280;7039;52.168;9.866;2023-04-03T01:27:49;102121.06;;;2.58;72.85
13934;BME280;7039;52.168;9.866;2023-04-03T01:30:18;102127.19;;;2.71;72.58
13934;BME280;7039;52.168;9.866;2023-04-03T01:32:47;102130.47;;;2.56;73.07
13934;BME280;7039;52.168;9.866;2023-04-03T01:35:13;102124.50;;;2.57;72.90
13934;BME280;7039;52.168;9.866;2023-04-03T01:37:40;102121.88;;;2.53;73.00
13934;BME280;7039;52.168;9.866;2023-04-03T01:40:07;102113.28;;;2.50;73.22
13934;BME280;7039;52.168;9.866;2023-04-03T01:42:34;102130.41;;;2.45;73.28
13934;BME280;7039;52.168;9.866;2023-04-03T01:45:00;102126.97;;;2.46;73.27
13934;BME280;7039;52.168;9.866;2023-04-03T01:47:27;102134.63;;;2.40;73.00
13934;BME280;7039;52.168;9.866;2023-04-03T01:49:55;102137.22;;;2.42;73.39
13934;BME280;7039;52.168;9.866;2023-04-03T01:52:21;102142.38;;;2.43;73.30
13934;BME280;7039;52.168;9.866;2023-04-03T01:54:48;102137.19;;;2.40;72.86
13934;BME280;7039;52.168;9.866;2023-04-03T01:57:15;102149.28;;;2.47;72.87
13934;BME280;7039;52.168;9.866;2023-04-03T01:59:42;102143.28;;;2.45;72.88
13934;BME280;7039;52.168;9.866;2023-04-03T02:02:09;102141.50;;;2.43;73.12
13934;BME280;7039;52.168;9.866;2023-04-03T02:04:37;102142.31;;;2.37;73.12
13934;BME280;7039;52.168;9.866;2023-04-03T02:07:05;102141.38;;;2.30;73.46
13934;BME280;7039;52.168;9.866;2023-04-03T02:09:32;102141.31;;;2.23;73.45
13934;BME280;7039;52.168;9.866;2023-04-03T02:11:58;102144.72;;;2.20;73.63
13934;BME280;7039;52.168;9.866;2023-04-03T02:14:25;102144.56;;;2.11;74.19
13934;BME280;7039;52.168;9.866;2023-04-03T02:16:52;102147.25;;;2.19;74.10
13934;BME280;7039;52.168;9.866;2023-04-03T02:19:19;102148.09;;;2.18;73.78
13934;BME280;7039;52.168;9.866;2023-04-03T02:21:46;102151.53;;;2.17;73.68
13934;BME280;7039;52.168;9.866;2023-04-03T02:24:13;102149.69;;;2.05;74.53
13934;BME280;7039;52.168;9.866;2023-04-03T02:26:40;102144.50;;;2.03;74.64
13934;BME280;7039;52.168;9.866;2023-04-03T02:29:06;102141.84;;;1.96;74.77
13934;BME280;7039;52.168;9.866;2023-04-03T02:31:33;102148.81;;;2.04;74.52
13934;BME280;7039;52.168;9.866;2023-04-03T02:33:59;102141.94;;;2.06;74.32
13934;BME280;7039;52.168;9.866;2023-04-03T02:36:26;102137.53;;;1.93;74.11
13934;BME280;7039;52.168;9.866;2023-04-03T02:38:52;102137.16;;;1.67;74.38
13934;BME280;7039;52.168;9.866;2023-04-03T02:41:20;102145.81;;;1.72;74.61
13934;BME280;7039;52.168;9.866;2023-04-03T02:43:47;102138.59;;;1.46;75.49
13934;BME280;7039;52.168;9.866;2023-04-03T02:46:13;102144.53;;;1.42;75.67
13934;BME280;7039;52.168;9.866;2023-04-03T02:48:40;102142.97;;;1.54;76.09
13934;BME280;7039;52.168;9.866;2023-04-03T02:51:07;102150.88;;;1.66;75.73
13934;BME280;7039;52.168;9.866;2023-04-03T02:53:33;102161.25;;;1.71;75.50
13934;BME280;7039;52.168;9.866;2023-04-03T02:56:00;102156.16;;;1.75;75.54
13934;BME280;7039;52.168;9.866;2023-04-03T02:58:28;102156.19;;;1.78;75.81
13934;BME280;7039;52.168;9.866;2023-04-03T03:00:54;102154.53;;;1.82;75.25
13934;BME280;7039;52.168;9.866;2023-04-03T03:03:20;102148.41;;;1.74;75.47
13934;BME280;7039;52.168;9.866;2023-04-03T03:05:47;102163.94;;;1.80;75.27
13934;BME280;7039;52.168;9.866;2023-04-03T03:08:14;102152.69;;;1.75;75.24
13934;BME280;7039;52.168;9.866;2023-04-03T03:10:40;102156.03;;;1.67;75.54
13934;BME280;7039;52.168;9.866;2023-04-03T03:13:07;102159.63;;;1.77;75.27
13934;BME280;7039;52.168;9.866;2023-04-03T03:15:35;102164.72;;;1.76;75.15
13934;BME280;7039;52.168;9.866;2023-04-03T03:18:02;102163.84;;;1.74;75.36
13934;BME280;7039;52.168;9.866;2023-04-03T03:20:28;102169.81;;;1.71;75.41
13934;BME280;7039;52.168;9.866;2023-04-03T03:22:55;102168.00;;;1.65;75.33
13934;BME280;7039;52.168;9.866;2023-04-03T03:25:21;102167.13;;;1.62;75.41
13934;BME280;7039;52.168;9.866;2023-04-03T03:27:48;102169.34;;;1.40;75.50
13934;BME280;7039;52.168;9.866;2023-04-03T03:30:15;102165.16;;;1.45;75.83
13934;BME280;7039;52.168;9.866;2023-04-03T03:32:42;102171.97;;;1.42;75.45
13934;BME280;7039;52.168;9.866;2023-04-03T03:35:09;102173.59;;;1.37;75.84
13934;BME280;7039;52.168;9.866;2023-04-03T03:37:36;102177.06;;;1.40;75.92
13934;BME280;7039;52.168;9.866;2023-04-03T06:46:16;102326.19;;;2.53;74.10
13934;BME280;7039;52.168;9.866;2023-04-03T06:48:44;102328.00;;;2.60;73.90
13934;BME280;7039;52.168;9.866;2023-04-03T07:11:12;102345.25;;;2.67;73.71
13934;BME280;7039;52.168;9.866;2023-04-03T07:30:22;102365.56;;;3.13;72.47
13934;BME280;7039;52.168;9.866;2023-04-03T07:32:48;102364.88;;;3.28;71.99
13934;BME280;7039;52.168;9.866;2023-04-03T07:35:29;102362.97;;;3.10;71.71
13934;BME280;7039;52.168;9.866;2023-04-03T07:38:13;102368.41;;;3.38;71.10
13934;BME280;7039;52.168;9.866;2023-04-03T07:40:50;102375.38;;;3.43;71.42
13934;BME280;7039;52.168;9.866;2023-04-03T07:43:29;102372.00;;;3.50;71.65
13934;BME280;7039;52.168;9.866;2023-04-03T07:45:59;102376.34;;;3.56;71.19
13934;BME280;7039;52.168;9.866;2023-04-03T07:48:26;102374.69;;;3.61;70.81
13934;BME280;7039;52.168;9.866;2023-04-03T07:50:53;102373.78;;;3.58;70.77
13934;BME280;7039;52.168;9.866;2023-04-03T07:53:20;102374.81;;;3.76;70.53
13934;BME280;7039;52.168;9.866;2023-04-03T07:55:47;102372.16;;;3.69;70.44
13934;BME280;7039;52.168;9.866;2023-04-03T07:58:17;102369.59;;;3.69;70.02
13934;BME280;7039;52.168;9.866;2023-04-03T08:00:45;102364.59;;;3.90;69.94
13934;BME280;7039;52.168;9.866;2023-04-03T08:03:14;102363.63;;;3.79;69.89
13934;BME280;7039;52.168;9.866;2023-04-03T08:05:43;102361.13;;;3.88;69.75
13934;BME280;7039;52.168;9.866;2023-04-03T08:08:11;102361.19;;;3.93;68.96
13934;BME280;7039;52.168;9.866;2023-04-03T08:10:39;102373.25;;;3.95;69.04
13934;BME280;7039;52.168;9.866;2023-04-03T08:13:07;102375.91;;;4.06;69.39
13934;BME280;7039;52.168;9.866;2023-04-03T08:15:33;102369.84;;;3.98;69.11
13934;BME280;7039;52.168;9.866;2023-04-03T08:18:00;102372.44;;;4.04;69.14
13934;BME280;7039;52.168;9.866;2023-04-03T08:20:30;102375.16;;;4.21;68.39
13934;BME280;7039;52.168;9.866;2023-04-03T08:23:08;102372.56;;;4.19;69.00
13934;BME280;7039;52.168;9.866;2023-04-03T08:25:43;102375.97;;;4.14;69.49
13934;BME280;7039;52.168;9.866;2023-04-03T08:28:11;102376.06;;;4.26;68.21
13934;BME280;7039;52.168;9.866;2023-04-03T08:30:39;102371.78;;;4.28;68.90
13934;BME280;7039;52.168;9.866;2023-04-03T08:33:06;102372.69;;;4.38;68.24
13934;BME280;7039;52.168;9.866;2023-04-03T08:35:38;102369.25;;;4.37;68.38
13934;BME280;7039;52.168;9.866;2023-04-03T08:41:31;102351.19;;;4.39;68.70
13934;BME280;7039;52.168;9.866;2023-04-03T08:47:23;102359.91;;;4.59;68.19
13934;BME280;7039;52.168;9.866;2023-04-03T08:49:53;102360.03;;;4.84;67.82
13934;BME280;7039;52.168;9.866;2023-04-03T08:52:31;102359.28;;;5.16;67.26
13934;BME280;7039;52.168;9.866;2023-04-03T08:55:00;102361.03;;;5.28;66.74
13934;BME280;7039;52.168;9.866;2023-04-03T08:57:30;102345.47;;;5.18;66.22
13934;BME280;7039;52.168;9.866;2023-04-03T09:00:05;102347.19;;;5.13;65.64
13934;BME280;7039;52.168;9.866;2023-04-03T09:02:35;102356.72;;;5.47;65.46
13934;BME280;7039;52.168;9.866;2023-04-03T09:05:11;102358.47;;;5.55;63.98
13934;BME280;7039;52.168;9.866;2023-04-03T09:07:44;102350.75;;;5.81;63.60
13934;BME280;7039;52.168;9.866;2023-04-03T09:10:14;102353.31;;;5.48;63.89
13934;BME280;7039;52.168;9.866;2023-04-03T09:12:44;102361.94;;;5.67;62.92
13934;BME280;7039;52.168;9.866;2023-04-03T09:15:19;102352.47;;;6.02;62.79
13934;BME280;7039;52.168;9.866;2023-04-03T09:17:55;102342.97;;;6.01;61.65
13934;BME280;7039;52.168;9.866;2023-04-03T09:20:31;102352.44;;;6.25;61.47
13934;BME280;7039;52.168;9.866;2023-04-03T09:23:12;102345.47;;;6.51;58.92
13934;BME280;7039;52.168;9.866;2023-04-03T09:25:41;102349.81;;;6.48;57.87
13934;BME280;7039;52.168;9.866;2023-04-03T09:28:09;102351.44;;;6.76;58.70
13934;BME280;7039;52.168;9.866;2023-04-03T09:30:36;102339.38;;;6.68;57.73
13934;BME280;7039;52.168;9.866;2023-04-03T09:33:04;102349.53;;;7.18;57.04
13934;BME280;7039;52.168;9.866;2023-04-03T09:35:34;102341.84;;;6.90;58.36
13934;BME280;7039;52.168;9.866;2023-04-03T09:38:16;102346.81;;;7.33;57.11
13934;BME280;7039;52.168;9.866;2023-04-03T11:20:02;102245.63;;;9.93;47.77
13934;BME280;7039;52.168;9.866;2023-04-03T12:32:19;102186.47;;;8.35;49.81
13934;BME280;7039;52.168;9.866;2023-04-03T12:49:43;102175.53;;;10.21;44.96
13934;BME280;7039;52.168;9.866;2023-04-03T12:52:19;102188.50;;;11.04;44.35
13934;BME280;7039;52.168;9.866;2023-04-03T12:54:50;102171.22;;;10.97;44.09
13934;BME280;7039;52.168;9.866;2023-04-03T13:05:28;102147.19;;;11.20;43.67
13934;BME280;7039;52.168;9.866;2023-04-03T14:08:15;102080.53;;;9.51;45.75
13934;BME280;7039;52.168;9.866;2023-04-03T14:11:18;102094.97;;;10.09;45.53
13934;BME280;7039;52.168;9.866;2023-04-03T15:14:19;102034.81;;;11.21;41.14
13934;BME280;7039;52.168;9.866;2023-04-03T15:17:01;102027.78;;;10.58;42.13
13934;BME280;7039;52.168;9.866;2023-04-03T15:19:30;102046.44;;;10.42;42.39
13934;BME280;7039;52.168;9.866;2023-04-03T15:24:43;102052.59;;;12.56;40.04
13934;BME280;7039;52.168;9.866;2023-04-03T15:27:24;102054.38;;;14.45;36.89
13934;BME280;7039;52.168;9.866;2023-04-03T15:32:30;102041.97;;;16.25;33.45
13934;BME280;7039;52.168;9.866;2023-04-03T15:43:22;102042.09;;;12.82;38.26
13934;BME280;7039;52.168;9.866;2023-04-03T15:45:52;102024.00;;;12.49;38.67
13934;BME280;7039;52.168;9.866;2023-04-03T15:48:24;102029.97;;;13.53;37.41
13934;BME280;7039;52.168;9.866;2023-04-03T15:50:51;102036.41;;;15.38;34.72
13934;BME280;7039;52.168;9.866;2023-04-03T15:53:17;102036.38;;;16.68;33.58
13934;BME280;7039;52.168;9.866;2023-04-03T15:55:44;102033.59;;;17.71;31.75
13934;BME280;7039;52.168;9.866;2023-04-03T15:58:11;102036.59;;;18.28;32.03
13934;BME280;7039;52.168;9.866;2023-04-03T16:00:38;102025.75;;;16.87;32.79
13934;BME280;7039;52.168;9.866;2023-04-03T16:03:07;102017.78;;;13.98;36.97
13934;BME280;7039;52.168;9.866;2023-04-03T16:05:37;102016.03;;;13.29;37.66
13934;BME280;7039;52.168;9.866;2023-04-03T16:08:05;102020.28;;;12.57;39.66
13934;BME280;7039;52.168;9.866;2023-04-03T16:10:33;102009.50;;;12.12;40.10
13934;BME280;7039;52.168;9.866;2023-04-03T16:12:59;102015.94;;;12.02;40.19
13934;BME280;7039;52.168;9.866;2023-04-03T16:15:26;102013.66;;;11.60;41.38
13934;BME280;7039;52.168;9.866;2023-04-03T16:17:53;102015.50;;;10.96;41.50
13934;BME280;7039;52.168;9.866;2023-04-03T16:20:20;102009.72;;;10.84;41.59
13934;BME280;7039;52.168;9.866;2023-04-03T16:22:48;102005.56;;;10.77;41.67
13934;BME280;7039;52.168;9.866;2023-04-03T16:25:15;102011.00;;;10.34;42.66
13934;BME280;7039;52.168;9.866;2023-04-03T16:27:41;102010.09;;;10.35;41.87
13934;BME280;7039;52.168;9.866;2023-04-03T16:30:08;102015.13;;;10.03;42.61
13934;BME280;7039;52.168;9.866;2023-04-03T16:32:36;102016.75;;;10.11;43.23
13934;BME280;7039;52.168;9.866;2023-04-03T16:35:04;102017.09;;;9.95;43.17
13934;BME280;7039;52.168;9.866;2023-04-03T16:37:30;102007.91;;;9.79;43.37
13934;BME280;7039;52.168;9.866;2023-04-03T16:39:58;102024.06;;;9.93;43.53
13934;BME280;7039;52.168;9.866;2023-04-03T16:42:25;102023.72;;;10.46;42.74
13934;BME280;7039;52.168;9.866;2023-04-03T16:44:51;102031.19;;;10.94;42.21
13934;BME280;7039;52.168;9.866;2023-04-03T16:47:18;102025.88;;;11.60;40.21
13934;BME280;7039;52.168;9.866;2023-04-03T16:49:45;102024.56;;;11.15;41.18
13934;BME280;7039;52.168;9.866;2023-04-03T16:52:12;102025.69;;;11.67;40.91
13934;BME280;7039;52.168;9.866;2023-04-03T16:54:39;102027.88;;;12.11;39.94
13934;BME280;7039;52.168;9.866;2023-04-03T16:57:07;102025.56;;;13.05;38.17
13934;BME280;7039;52.168;9.866;2023-04-03T16:59:33;102024.19;;;13.20;38.22
13934;BME280;7039;52.168;9.866;2023-04-03T17:02:00;102014.63;;;12.94;38.19
13934;BME280;7039;52.168;9.866;2023-04-03T17:04:26;102017.97;;;12.47;38.30
13934;BME280;7039;52.168;9.866;2023-04-03T17:06:53;102022.00;;;11.73;39.30
13934;BME280;7039;52.168;9.866;2023-04-03T17:09:20;102014.78;;;10.91;40.69
13934;BME280;7039;52.168;9.866;2023-04-03T17:11:47;102017.16;;;10.31;41.77
13934;BME280;7039;52.168;9.866;2023-04-03T17:14:15;102017.59;;;10.11;42.71
13934;BME280;7039;52.168;9.866;2023-04-03T17:16:42;102016.72;;;10.82;42.30
13934;BME280;7039;52.168;9.866;2023-04-03T17:19:09;102021.28;;;11.69;40.78
13934;BME280;7039;52.168;9.866;2023-04-03T17:21:37;102021.59;;;11.87;40.63
13934;BME280;7039;52.168;9.866;2023-04-03T17:24:05;102022.59;;;11.53;41.05
13934;BME280;7039;52.168;9.866;2023-04-03T17:26:34;102019.63;;;11.65;41.03
13934;BME280;7039;52.168;9.866;2023-04-03T17:29:02;102018.28;;;11.82;41.17
13934;BME280;7039;52.168;9.866;2023-04-03T17:31:30;102012.72;;;11.33;42.05
13934;BME280;7039;52.168;9.866;2023-04-03T17:33:56;102006.44;;;10.42;42.80
13934;BME280;7039;52.168;9.866;2023-04-03T17:36:26;102015.13;;;10.05;43.52
13934;BME280;7039;52.168;9.866;2023-04-03T17:38:53;102017.00;;;9.98;44.42
13934;BME280;7039;52.168;9.866;2023-04-03T17:41:19;102015.63;;;9.83;45.22
13934;BME280;7039;52.168;9.866;2023-04-03T17:43:46;102012.81;;;9.51;45.89
13934;BME280;7039;52.168;9.866;2023-04-03T17:46:12;102013.09;;;8.93;47.18
13934;BME280;7039;52.168;9.866;2023-04-03T17:48:43;102015.28;;;8.67;46.42
13934;BME280;7039;52.168;9.866;2023-04-03T17:51:11;102016.78;;;8.27;47.46
13934;BME280;7039;52.168;9.866;2023-04-03T17:53:39;102015.72;;;8.39;47.48
13934;BME280;7039;52.168;9.866;2023-04-03T17:56:06;102018.69;;;8.14;48.52
13934;BME280;7039;52.168;9.866;2023-04-03T17:58:33;102011.28;;;7.88;49.45
13934;BME280;7039;52.168;9.866;2023-04-03T18:01:06;102007.16;;;7.75;49.36
13934;BME280;7039;52.168;9.866;2023-04-03T18:03:33;102012.41;;;7.67;49.18
13934;BME280;7039;52.168;9.866;2023-04-03T18:06:02;102010.91;;;7.51;49.62
13934;BME280;7039;52.168;9.866;2023-04-03T18:08:31;102017.94;;;7.43;50.33
13934;BME280;7039;52.168;9.866;2023-04-03T18:10:58;102021.56;;;7.29;51.01
13934;BME280;7039;52.168;9.866;2023-04-03T18:13:25;102025.91;;;7.24;51.12
13934;BME280;7039;52.168;9.866;2023-04-03T18:15:52;102025.91;;;7.26;50.92
13934;BME280;7039;52.168;9.866;2023-04-03T18:18:19;102028.72;;;7.09;51.04
13934;BME280;7039;52.168;9.866;2023-04-03T18:20:45;102036.59;;;7.00;51.86
13934;BME280;7039;52.168;9.866;2023-04-03T18:23:13;102034.03;;;6.95;52.19
13934;BME280;7039;52.168;9.866;2023-04-03T18:25:40;102040.94;;;6.96;52.39
13934;BME280;7039;52.168;9.866;2023-04-03T18:28:06;102033.19;;;6.93;52.58
13934;BME280;7039;52.168;9.866;2023-04-03T18:30:33;102041.06;;;6.84;52.50
13934;BME280;7039;52.168;9.866;2023-04-03T18:33:00;102044.41;;;6.95;52.62
13934;BME280;7039;52.168;9.866;2023-04-03T18:35:27;102040.03;;;6.99;53.05
13934;BME280;7039;52.168;9.866;2023-04-03T18:37:53;102040.94;;;6.98;52.59
13934;BME280;7039;52.168;9.866;2023-04-03T18:40:21;102044.28;;;7.09;52.60
13934;BME280;7039;52.168;9.866;2023-04-03T18:42:48;102039.19;;;7.00;52.81
13934;BME280;7039;52.168;9.866;2023-04-03T18:45:16;102034.91;;;6.96;52.80
13934;BME280;7039;52.168;9.866;2023-04-03T18:47:46;102047.84;;;6.97;52.65
13934;BME280;7039;52.168;9.866;2023-04-03T18:50:13;102036.72;;;6.83;53.67
13934;BME280;7039;52.168;9.866;2023-04-03T18:52:40;102037.63;;;6.79;53.38
13934;BME280;7039;52.168;9.866;2023-04-03T18:55:07;102042.84;;;6.76;53.54
13934;BME280;7039;52.168;9.866;2023-04-03T18:57:37;102037.88;;;6.53;54.57
13934;BME280;7039;52.168;9.866;2023-04-03T19:00:04;102044.75;;;6.55;54.36
13934;BME280;7039;52.168;9.866;2023-04-03T19:02:31;102045.78;;;6.34;54.73
13934;BME280;7039;52.168;9.866;2023-04-03T19:04:58;102048.41;;;6.28;54.33
13934;BME280;7039;52.168;9.866;2023-04-03T19:07:26;102053.56;;;6.33;54.47
13934;BME280;7039;52.168;9.866;2023-04-03T19:09:53;102053.66;;;6.19;55.11
13934;BME280;7039;52.168;9.866;2023-04-03T19:12:20;102058.09;;;6.00;55.23
13934;BME280;7039;52.168;9.866;2023-04-03T19:14:48;102050.28;;;6.01;55.04
13934;BME280;7039;52.168;9.866;2023-04-03T19:17:14;102050.31;;;5.97;55.34
13934;BME280;7039;52.168;9.866;2023-04-03T19:19:41;102043.44;;;5.93;55.45
13934;BME280;7039;52.168;9.866;2023-04-03T19:22:07;102052.06;;;5.87;56.13
13934;BME280;7039;52.168;9.866;2023-04-03T19:24:35;102052.16;;;5.73;56.53
13934;BME280;7039;52.168;9.866;2023-04-03T19:27:01;102046.09;;;5.71;56.39
13934;BME280;7039;52.168;9.866;2023-04-03T19:29:28;102051.25;;;5.74;56.45
13934;BME280;7039;52.168;9.866;2023-04-03T19:31:56;102055.59;;;5.74;56.32
13934;BME280;7039;52.168;9.866;2023-04-03T19:34:22;102053.03;;;5.64;55.88
13934;BME280;7039;52.168;9.866;2023-04-03T19:36:49;102048.75;;;5.63;56.25
13934;BME280;7039;52.168;9.866;2023-04-03T19:39:17;102052.16;;;5.67;55.79
13934;BME280;7039;52.168;9.866;2023-04-03T19:41:43;102053.88;;;5.71;55.87
13934;BME280;7039;52.168;9.866;2023-04-03T19:44:11;102052.16;;;5.70;55.81
13934;BME280;7039;52.168;9.866;2023-04-03T19:46:37;102047.00;;;5.62;55.81
13934;BME280;7039;52.168;9.866;2023-04-03T19:49:05;102046.16;;;5.60;55.90
13934;BME280;7039;52.168;9.866;2023-04-03T19:51:32;102046.19;;;5.54;55.31
13934;BME280;7039;52.168;9.866;2023-04-03T19:53:59;102047.91;;;5.52;55.57
13934;BME280;7039;52.168;9.866;2023-04-03T19:56:25;102048.78;;;5.48;55.63
13934;BME280;7039;52.168;9.866;2023-04-03T19:58:51;102048.78;;;5.48;55.46
13934;BME280;7039;52.168;9.866;2023-04-03T20:01:19;102047.09;;;5.38;56.12
13934;BME280;7039;52.168;9.866;2023-04-03T20:03:46;102041.94;;;5.30;55.93
13934;BME280;7039;52.168;9.866;2023-04-03T20:06:14;102057.47;;;5.29;56.17
13934;BME280;7039;52.168;9.866;2023-04-03T20:08:41;102046.28;;;5.25;56.44
13934;BME280;7039;52.168;9.866;2023-04-03T20:11:07;102051.44;;;5.27;56.32
13934;BME280;7039;52.168;9.866;2023-04-03T20:13:34;102050.59;;;5.21;56.74
13934;BME280;7039;52.168;9.866;2023-04-03T20:16:03;102043.69;;;5.22;56.38
13934;BME280;7039;52.168;9.866;2023-04-03T20:18:30;102047.16;;;5.22;56.45
13934;BME280;7039;52.168;9.866;2023-04-03T20:20:59;102040.25;;;5.17;56.87
13934;BME280;7039;52.168;9.866;2023-04-03T20:23:27;102044.59;;;5.07;57.61
13934;BME280;7039;52.168;9.866;2023-04-03T20:25:56;102042.88;;;5.00;58.04
13934;BME280;7039;52.168;9.866;2023-04-03T20:28:23;102040.31;;;4.94;58.25
13934;BME280;7039;52.168;9.866;2023-04-03T20:30:51;102052.38;;;4.87;58.75
13934;BME280;7039;52.168;9.866;2023-04-03T20:33:19;102045.50;;;4.81;57.88
13934;BME280;7039;52.168;9.866;2023-04-03T20:35:46;102048.94;;;4.77;58.20
13934;BME280;7039;52.168;9.866;2023-04-03T20:38:13;102043.78;;;4.68;58.71
13934;BME280;7039;52.168;9.866;2023-04-03T20:40:42;102048.94;;;4.54;59.34
13934;BME280;7039;52.168;9.866;2023-04-03T20:43:09;102052.41;;;4.66;59.14
13934;BME280;7039;52.168;9.866;2023-04-03T20:45:36;102044.63;;;4.52;59.56
13934;BME280;7039;52.168;9.866;2023-04-03T20:48:02;102033.44;;;4.34;60.62
13934;BME280;7039;52.168;9.866;2023-04-03T20:50:30;102039.44;;;4.18;61.18
13934;BME280;7039;52.168;9.866;2023-04-03T20:52:59;102036.84;;;4.19;61.96
13934;BME280;7039;52.168;9.866;2023-04-03T20:55:26;102038.56;;;4.13;62.24
13934;BME280;7039;52.168;9.866;2023-04-03T20:57:54;102031.66;;;4.07;62.28
13934;BME280;7039;52.168;9.866;2023-04-03T21:00:25;102031.66;;;3.98;62.51
13934;BME280;7039;52.168;9.866;2023-04-03T21:02:52;102026.47;;;4.04;62.73
13934;BME280;7039;52.168;9.866;2023-04-03T21:05:20;102031.66;;;4.01;62.86
13934;BME280;7039;52.168;9.866;2023-04-03T21:19:30;102022.78;;;3.25;64.97
13934;BME280;7039;52.168;9.866;2023-04-03T21:21:58;102022.78;;;3.25;65.45
13934;BME280;7039;52.168;9.866;2023-04-03T21:24:25;102027.97;;;3.30;65.56
13934;BME280;7039;52.168;9.866;2023-04-03T21:26:52;102026.03;;;2.97;66.33
13934;BME280;7039;52.168;9.866;2023-04-03T21:29:18;102022.66;;;3.05;66.56
13934;BME280;7039;52.168;9.866;2023-04-03T21:31:50;102019.22;;;3.05;66.98
13934;BME280;7039;52.168;9.866;2023-04-03T21:34:17;102012.28;;;2.95;66.99
13934;BME280;7039;52.168;9.866;2023-04-03T21:36:46;102018.41;;;3.15;66.38
13934;BME280;7039;52.168;9.866;2023-04-03T21:39:14;102015.84;;;3.17;66.42
13934;BME280;7039;52.168;9.866;2023-04-03T21:41:41;102020.97;;;3.07;66.46
13934;BME280;7039;52.168;9.866;2023-04-03T21:44:08;102013.13;;;2.89;66.59
13934;BME280;7039;52.168;9.866;2023-04-03T21:46:34;102018.31;;;2.98;66.67
13934;BME280;7039;52.168;9.866;2023-04-03T21:49:01;102018.38;;;3.10;66.13
13934;BME280;7039;52.168;9.866;2023-04-03T21:51:27;102009.78;;;3.10;65.91
13934;BME280;7039;52.168;9.866;2023-04-03T21:53:55;102010.53;;;2.92;65.89
13934;BME280;7039;52.168;9.866;2023-04-03T21:56:22;102003.38;;;2.51;66.50
13934;BME280;7039;52.168;9.866;2023-04-03T21:58:49;102006.78;;;2.45;66.85
13934;BME280;7039;52.168;9.866;2023-04-03T22:01:18;102001.66;;;2.48;67.47
13934;BME280;7039;52.168;9.866;2023-04-03T22:03:45;102006.91;;;2.65;67.19
13934;BME280;7039;52.168;9.866;2023-04-03T22:06:13;102006.06;;;2.68;67.12
13934;BME280;7039;52.168;9.866;2023-04-03T22:08:40;102008.66;;;2.68;67.26
13934;BME280;7039;52.168;9.866;2023-04-03T22:11:08;102012.19;;;2.78;66.51
13934;BME280;7039;52.168;9.866;2023-04-03T22:13:37;102013.84;;;2.74;66.52
13934;BME280;7039;52.168;9.866;2023-04-03T22:16:04;102016.44;;;2.74;66.68
13934;BME280;7039;52.168;9.866;2023-04-03T22:18:31;102017.28;;;2.75;67.01
13934;BME280;7039;52.168;9.866;2023-04-03T22:20:58;102014.59;;;2.58;67.10
13934;BME280;7039;52.168;9.866;2023-04-03T22:23:25;102012.06;;;2.62;67.41
13934;BME280;7039;52.168;9.866;2023-04-03T22:26:02;102017.19;;;2.58;67.41
13934;BME280;7039;52.168;9.866;2023-04-03T22:28:31;102015.41;;;2.54;67.93
13934;BME280;7039;52.168;9.866;2023-04-03T22:30:59;102022.31;;;2.55;67.50
13934;BME280;7039;52.168;9.866;2023-04-03T22:33:26;102027.22;;;2.25;67.73
13934;BME280;7039;52.168;9.866;2023-04-03T22:35:52;102025.38;;;2.14;67.82
13934;BME280;7039;52.168;9.866;2023-04-03T22:38:19;102018.09;;;1.74;69.73
13934;BME280;7039;52.168;9.866;2023-04-03T22:40:46;102021.75;;;1.93;68.87
13934;BME280;7039;52.168;9.866;2023-04-03T22:43:13;102024.28;;;1.92;69.77
13934;BME280;7039;52.168;9.866;2023-04-03T22:45:47;102022.72;;;2.04;69.75